VLG65PB LEBL-LICJ
Flight info
| Callsign | VLG65PB |
|---|---|
| Flight time | 1h 27m |
| Altitude | 37000 |
| Route | DIPES DCT TOSNU DCT LAPIT N725 OSPOK DCT NOLVI DCT ORKUM DCT ELSAG DCT ALG DCT ALEDI DCT GISIG DCT ERPEM DCT GIANO |
| Aircraft | A320/M-SDE3FGHIRWY/LB1 |
Departure
| Time | 2026-05-04 18:02 |
|---|---|
| Airport | Josep Tarradellas Barcelona-El Prat Airport (LEBL) |
Arrival
| Time | 2026-05-04 19:29 |
|---|---|
| Airport | Falcone–Borsellino Airport (LICJ) |
| Time | Latitude | Longitude | Altitude | Speed | Heading |
|---|---|---|---|---|---|
| 2026-05-04 17:45 | 41.29115 | 2.07845 | 19 ft | 0 kts | 155° |
| 2026-05-04 17:51 | 41.29117 | 2.07844 | 19 ft | 2 kts | 155° |
| 2026-05-04 17:51 | 41.29140 | 2.07830 | 21 ft | 4 kts | 156° |
| 2026-05-04 17:52 | 41.29164 | 2.07814 | 20 ft | 4 kts | 140° |
| 2026-05-04 17:52 | 41.29180 | 2.07788 | 19 ft | 4 kts | 100° |
| 2026-05-04 17:52 | 41.29179 | 2.07769 | 19 ft | 0 kts | 65° |
| 2026-05-04 17:55 | 41.29180 | 2.07773 | 20 ft | 3 kts | 65° |
| 2026-05-04 17:56 | 41.29207 | 2.07850 | 19 ft | 15 kts | 65° |
| 2026-05-04 17:56 | 41.29253 | 2.07983 | 19 ft | 16 kts | 65° |
| 2026-05-04 17:56 | 41.29303 | 2.08127 | 19 ft | 18 kts | 65° |
| 2026-05-04 17:56 | 41.29355 | 2.08280 | 19 ft | 19 kts | 65° |
| 2026-05-04 17:57 | 41.29315 | 2.08409 | 20 ft | 18 kts | 151° |
| 2026-05-04 17:57 | 41.29200 | 2.08479 | 20 ft | 21 kts | 155° |
| 2026-05-04 17:57 | 41.29054 | 2.08568 | 17 ft | 24 kts | 155° |
| 2026-05-04 17:57 | 41.28904 | 2.08659 | 16 ft | 24 kts | 155° |
| 2026-05-04 17:58 | 41.28881 | 2.08785 | 16 ft | 18 kts | 68° |
| 2026-05-04 17:58 | 41.28942 | 2.08960 | 17 ft | 22 kts | 65° |
| 2026-05-04 17:58 | 41.29005 | 2.09152 | 16 ft | 23 kts | 67° |
| 2026-05-04 17:58 | 41.29074 | 2.09354 | 17 ft | 24 kts | 64° |
| 2026-05-04 17:59 | 41.29149 | 2.09563 | 17 ft | 26 kts | 66° |
| 2026-05-04 17:59 | 41.29224 | 2.09784 | 17 ft | 27 kts | 65° |
| 2026-05-04 17:59 | 41.29360 | 2.10146 | 16 ft | 19 kts | 65° |
| 2026-05-04 18:00 | 41.29310 | 2.10281 | 13 ft | 20 kts | 163° |
| 2026-05-04 18:00 | 41.29203 | 2.10266 | 17 ft | 13 kts | 225° |
| 2026-05-04 18:00 | 41.29173 | 2.10189 | 17 ft | 7 kts | 245° |
| 2026-05-04 18:00 | 41.29152 | 2.10128 | 17 ft | 16 kts | 245° |
| 2026-05-04 18:01 | 41.29004 | 2.09696 | 19 ft | 87 kts | 245° |
| 2026-05-04 18:01 | 41.28668 | 2.08716 | 22 ft | 143 kts | 245° |
| 2026-05-04 18:01 | 41.28227 | 2.07405 | 411 ft | 154 kts | 246° |
| 2026-05-04 18:02 | 41.26604 | 2.05810 | 1594 ft | 159 kts | 180° |
| 2026-05-04 18:02 | 41.25442 | 2.05800 | 1938 ft | 177 kts | 180° |
| 2026-05-04 18:02 | 41.24125 | 2.05789 | 2226 ft | 200 kts | 181° |
| 2026-05-04 18:02 | 41.23150 | 2.05778 | 2451 ft | 214 kts | 181° |
| 2026-05-04 18:03 | 41.21137 | 2.05747 | 3359 ft | 221 kts | 182° |
| 2026-05-04 18:03 | 41.20115 | 2.05731 | 3870 ft | 222 kts | 182° |
| 2026-05-04 18:03 | 41.18569 | 2.05706 | 4684 ft | 222 kts | 183° |
| 2026-05-04 18:03 | 41.16487 | 2.05655 | 5640 ft | 231 kts | 184° |
| 2026-05-04 18:04 | 41.15407 | 2.05608 | 6065 ft | 237 kts | 184° |
| 2026-05-04 18:04 | 41.13745 | 2.05527 | 6867 ft | 240 kts | 185° |
| 2026-05-04 18:04 | 41.10366 | 2.05351 | 8487 ft | 246 kts | 185° |
| 2026-05-04 18:05 | 41.08638 | 2.05271 | 9246 ft | 252 kts | 183° |
| 2026-05-04 18:05 | 41.06841 | 2.05783 | 9581 ft | 281 kts | 155° |
| 2026-05-04 18:05 | 41.05355 | 2.07562 | 10115 ft | 303 kts | 127° |
| 2026-05-04 18:05 | 41.04603 | 2.10309 | 10360 ft | 335 kts | 102° |
| 2026-05-04 18:06 | 41.04359 | 2.16762 | 11406 ft | 361 kts | 91° |
| 2026-05-04 18:06 | 41.04439 | 2.20107 | 12108 ft | 365 kts | 91° |
| 2026-05-04 18:06 | 41.04521 | 2.23498 | 12806 ft | 369 kts | 91° |
| 2026-05-04 18:07 | 41.04568 | 2.26917 | 13491 ft | 373 kts | 92° |
| 2026-05-04 18:07 | 41.04571 | 2.30365 | 14157 ft | 376 kts | 93° |
| 2026-05-04 18:07 | 41.04540 | 2.33850 | 14811 ft | 380 kts | 94° |
| 2026-05-04 18:07 | 41.04485 | 2.37364 | 15453 ft | 383 kts | 94° |
| 2026-05-04 18:08 | 41.04421 | 2.40905 | 16064 ft | 387 kts | 94° |
| 2026-05-04 18:08 | 41.04355 | 2.44484 | 16673 ft | 390 kts | 94° |
| 2026-05-04 18:08 | 41.04291 | 2.48092 | 17255 ft | 394 kts | 94° |
| 2026-05-04 18:08 | 41.04229 | 2.51734 | 17838 ft | 397 kts | 94° |
| 2026-05-04 18:09 | 41.04111 | 2.59089 | 18970 ft | 403 kts | 94° |
| 2026-05-04 18:09 | 41.03986 | 2.66592 | 20010 ft | 411 kts | 95° |
| 2026-05-04 18:10 | 41.03921 | 2.70397 | 20507 ft | 415 kts | 95° |
| 2026-05-04 18:10 | 41.03856 | 2.74244 | 20991 ft | 420 kts | 95° |
| 2026-05-04 18:10 | 41.03790 | 2.78132 | 21484 ft | 424 kts | 95° |
| 2026-05-04 18:10 | 41.03723 | 2.82051 | 21969 ft | 427 kts | 95° |
| 2026-05-04 18:11 | 41.03653 | 2.85998 | 22446 ft | 431 kts | 95° |
| 2026-05-04 18:11 | 41.03580 | 2.89981 | 22895 ft | 434 kts | 95° |
| 2026-05-04 18:11 | 41.03503 | 2.93998 | 23346 ft | 438 kts | 95° |
| 2026-05-04 18:11 | 41.03426 | 2.98049 | 23766 ft | 442 kts | 95° |
| 2026-05-04 18:12 | 41.03347 | 3.02129 | 24189 ft | 445 kts | 95° |
| 2026-05-04 18:12 | 41.03265 | 3.06244 | 24587 ft | 448 kts | 95° |
| 2026-05-04 18:12 | 41.03181 | 3.10388 | 24981 ft | 452 kts | 95° |
| 2026-05-04 18:12 | 41.03093 | 3.14553 | 25369 ft | 454 kts | 96° |
| 2026-05-04 18:13 | 41.03004 | 3.18745 | 25760 ft | 457 kts | 96° |
| 2026-05-04 18:13 | 41.02916 | 3.22961 | 26122 ft | 459 kts | 96° |
| 2026-05-04 18:13 | 41.02736 | 3.31469 | 26802 ft | 465 kts | 96° |
| 2026-05-04 18:14 | 41.02641 | 3.35764 | 27141 ft | 468 kts | 96° |
| 2026-05-04 18:14 | 41.02541 | 3.40078 | 27470 ft | 470 kts | 96° |
| 2026-05-04 18:14 | 41.02437 | 3.44415 | 27784 ft | 473 kts | 96° |
| 2026-05-04 18:15 | 41.02224 | 3.53161 | 28405 ft | 477 kts | 96° |
| 2026-05-04 18:15 | 41.02005 | 3.61997 | 28974 ft | 483 kts | 97° |
| 2026-05-04 18:15 | 41.01894 | 3.66451 | 29251 ft | 485 kts | 97° |
| 2026-05-04 18:16 | 41.01783 | 3.70873 | 29510 ft | 488 kts | 97° |
| 2026-05-04 18:16 | 41.01667 | 3.75428 | 29780 ft | 490 kts | 97° |
| 2026-05-04 18:16 | 41.01485 | 3.79876 | 30035 ft | 489 kts | 102° |
| 2026-05-04 18:17 | 41.00099 | 3.88629 | 30510 ft | 486 kts | 110° |
| 2026-05-04 18:17 | 40.99304 | 3.92987 | 30751 ft | 488 kts | 110° |
| 2026-05-04 18:17 | 40.97707 | 4.01747 | 31189 ft | 491 kts | 110° |
| 2026-05-04 18:18 | 40.96904 | 4.06154 | 31429 ft | 492 kts | 110° |
| 2026-05-04 18:18 | 40.96100 | 4.10549 | 31712 ft | 492 kts | 110° |
| 2026-05-04 18:18 | 40.95291 | 4.14953 | 32013 ft | 491 kts | 110° |
| 2026-05-04 18:18 | 40.94484 | 4.19344 | 32304 ft | 491 kts | 110° |
| 2026-05-04 18:19 | 40.92868 | 4.28117 | 32869 ft | 490 kts | 110° |
| 2026-05-04 18:19 | 40.92063 | 4.32500 | 33164 ft | 490 kts | 110° |
| 2026-05-04 18:19 | 40.91258 | 4.36866 | 33432 ft | 489 kts | 110° |
| 2026-05-04 18:20 | 40.90449 | 4.41232 | 33695 ft | 489 kts | 110° |
| 2026-05-04 18:20 | 40.89636 | 4.45595 | 33955 ft | 489 kts | 110° |
| 2026-05-04 18:20 | 40.88821 | 4.49957 | 34215 ft | 489 kts | 110° |
| 2026-05-04 18:20 | 40.88008 | 4.54317 | 34475 ft | 488 kts | 110° |
| 2026-05-04 18:21 | 40.87193 | 4.58681 | 34709 ft | 489 kts | 110° |
| 2026-05-04 18:21 | 40.86377 | 4.63040 | 34911 ft | 489 kts | 110° |
| 2026-05-04 18:21 | 40.85210 | 4.71884 | 34970 ft | 489 kts | 102° |
| 2026-05-04 18:22 | 40.84400 | 4.80737 | 34971 ft | 488 kts | 102° |
| 2026-05-04 18:22 | 40.83574 | 4.89623 | 34981 ft | 488 kts | 102° |
| 2026-05-04 18:23 | 40.82743 | 4.98518 | 34976 ft | 488 kts | 102° |
| 2026-05-04 18:23 | 40.81898 | 5.07411 | 34979 ft | 487 kts | 102° |
| 2026-05-04 18:24 | 40.81053 | 5.16285 | 34975 ft | 487 kts | 102° |
| 2026-05-04 18:24 | 40.80202 | 5.25150 | 34973 ft | 487 kts | 102° |
| 2026-05-04 18:25 | 40.79342 | 5.34016 | 34975 ft | 487 kts | 102° |
| 2026-05-04 18:25 | 40.78469 | 5.42879 | 34978 ft | 487 kts | 102° |
| 2026-05-04 18:26 | 40.77591 | 5.51745 | 34979 ft | 487 kts | 102° |
| 2026-05-04 18:26 | 40.76713 | 5.60614 | 34982 ft | 488 kts | 102° |
| 2026-05-04 18:27 | 40.75833 | 5.69490 | 34982 ft | 488 kts | 102° |
| 2026-05-04 18:27 | 40.74936 | 5.78352 | 34983 ft | 487 kts | 102° |
| 2026-05-04 18:28 | 40.74028 | 5.87211 | 34981 ft | 487 kts | 102° |
| 2026-05-04 18:28 | 40.73130 | 5.96015 | 34986 ft | 488 kts | 102° |
| 2026-05-04 18:29 | 40.72216 | 6.04880 | 34989 ft | 488 kts | 101° |
| 2026-05-04 18:29 | 40.71285 | 6.13744 | 34996 ft | 488 kts | 101° |
| 2026-05-04 18:30 | 40.69898 | 6.27033 | 34996 ft | 488 kts | 102° |
| 2026-05-04 18:31 | 40.68951 | 6.35880 | 35006 ft | 487 kts | 102° |
| 2026-05-04 18:31 | 40.68000 | 6.44716 | 35006 ft | 487 kts | 102° |
| 2026-05-04 18:32 | 40.67049 | 6.53556 | 35009 ft | 487 kts | 102° |
| 2026-05-04 18:32 | 40.66086 | 6.62412 | 35017 ft | 488 kts | 102° |
| 2026-05-04 18:33 | 40.65113 | 6.71259 | 35015 ft | 488 kts | 102° |
| 2026-05-04 18:33 | 40.64138 | 6.80091 | 35019 ft | 487 kts | 102° |
| 2026-05-04 18:34 | 40.63157 | 6.88918 | 35025 ft | 487 kts | 102° |
| 2026-05-04 18:34 | 40.62176 | 6.97752 | 35029 ft | 488 kts | 102° |
| 2026-05-04 18:35 | 40.61184 | 7.06574 | 35035 ft | 487 kts | 102° |
| 2026-05-04 18:35 | 40.60185 | 7.15389 | 35033 ft | 487 kts | 102° |
| 2026-05-04 18:36 | 40.59175 | 7.24199 | 35035 ft | 486 kts | 102° |
| 2026-05-04 18:36 | 40.58168 | 7.33005 | 35033 ft | 486 kts | 102° |
| 2026-05-04 18:37 | 40.57151 | 7.41790 | 35034 ft | 486 kts | 102° |
| 2026-05-04 18:37 | 40.56627 | 7.50603 | 35034 ft | 489 kts | 88° |
| 2026-05-04 18:38 | 40.57366 | 7.59513 | 35032 ft | 489 kts | 84° |
| 2026-05-04 18:38 | 40.58142 | 7.68401 | 35030 ft | 489 kts | 84° |
| 2026-05-04 18:39 | 40.58898 | 7.77289 | 35030 ft | 489 kts | 85° |
| 2026-05-04 18:39 | 40.59656 | 7.86184 | 35029 ft | 488 kts | 85° |
| 2026-05-04 18:40 | 40.60399 | 7.95058 | 35024 ft | 488 kts | 85° |
| 2026-05-04 18:40 | 40.61137 | 8.03939 | 35020 ft | 488 kts | 84° |
| 2026-05-04 18:41 | 40.61874 | 8.12800 | 35022 ft | 487 kts | 84° |
| 2026-05-04 18:41 | 40.61674 | 8.21639 | 35020 ft | 481 kts | 104° |
| 2026-05-04 18:42 | 40.59443 | 8.29828 | 35011 ft | 472 kts | 123° |
| 2026-05-04 18:42 | 40.55760 | 8.36860 | 35010 ft | 466 kts | 131° |
| 2026-05-04 18:43 | 40.51874 | 8.43692 | 35014 ft | 466 kts | 132° |
| 2026-05-04 18:43 | 40.48629 | 8.49368 | 35006 ft | 467 kts | 131° |
| 2026-05-04 18:44 | 40.44729 | 8.56204 | 35007 ft | 467 kts | 131° |
| 2026-05-04 18:44 | 40.40818 | 8.63033 | 35013 ft | 468 kts | 131° |
| 2026-05-04 18:45 | 40.36903 | 8.69868 | 35010 ft | 468 kts | 131° |
| 2026-05-04 18:45 | 40.32985 | 8.76701 | 35017 ft | 469 kts | 131° |
| 2026-05-04 18:46 | 40.29053 | 8.83531 | 35020 ft | 470 kts | 131° |
| 2026-05-04 18:46 | 40.25115 | 8.90355 | 35022 ft | 470 kts | 131° |
| 2026-05-04 18:47 | 40.21171 | 8.97175 | 35023 ft | 470 kts | 131° |
| 2026-05-04 18:47 | 40.17212 | 9.03985 | 35026 ft | 470 kts | 131° |
| 2026-05-04 18:48 | 40.13277 | 9.10757 | 35025 ft | 471 kts | 131° |
| 2026-05-04 18:48 | 40.09311 | 9.17577 | 35025 ft | 471 kts | 131° |
| 2026-05-04 18:49 | 40.05340 | 9.24398 | 35024 ft | 472 kts | 131° |
| 2026-05-04 18:49 | 40.01361 | 9.31213 | 35027 ft | 472 kts | 131° |
| 2026-05-04 18:50 | 39.97378 | 9.38016 | 35029 ft | 472 kts | 131° |
| 2026-05-04 18:50 | 39.93379 | 9.44813 | 35027 ft | 472 kts | 131° |
| 2026-05-04 18:51 | 39.89384 | 9.51603 | 35027 ft | 473 kts | 131° |
| 2026-05-04 18:51 | 39.85375 | 9.58406 | 35030 ft | 473 kts | 131° |
| 2026-05-04 18:52 | 39.81367 | 9.65194 | 35038 ft | 474 kts | 131° |
| 2026-05-04 18:52 | 39.77348 | 9.71983 | 35044 ft | 474 kts | 131° |
| 2026-05-04 18:53 | 39.73321 | 9.78770 | 35051 ft | 474 kts | 131° |
| 2026-05-04 18:53 | 39.69286 | 9.85557 | 35057 ft | 475 kts | 131° |
| 2026-05-04 18:54 | 39.65264 | 9.92302 | 35062 ft | 475 kts | 131° |
| 2026-05-04 18:54 | 39.61205 | 9.99080 | 35067 ft | 476 kts | 131° |
| 2026-05-04 18:55 | 39.57206 | 10.05934 | 35071 ft | 476 kts | 129° |
| 2026-05-04 18:55 | 39.51356 | 10.16353 | 35065 ft | 476 kts | 129° |
| 2026-05-04 18:56 | 39.47430 | 10.23265 | 35072 ft | 476 kts | 129° |
| 2026-05-04 18:56 | 39.43489 | 10.30142 | 35070 ft | 476 kts | 130° |
| 2026-05-04 18:57 | 39.39535 | 10.37006 | 35068 ft | 476 kts | 130° |
| 2026-05-04 18:57 | 39.35578 | 10.43861 | 35078 ft | 476 kts | 130° |
| 2026-05-04 18:58 | 39.31617 | 10.50728 | 35075 ft | 476 kts | 130° |
| 2026-05-04 18:58 | 39.27657 | 10.57579 | 35078 ft | 476 kts | 130° |
| 2026-05-04 18:59 | 39.23689 | 10.64428 | 35083 ft | 476 kts | 129° |
| 2026-05-04 18:59 | 39.19728 | 10.71268 | 35096 ft | 476 kts | 130° |
| 2026-05-04 19:00 | 39.15754 | 10.78104 | 35096 ft | 476 kts | 130° |
| 2026-05-04 19:00 | 39.11792 | 10.84879 | 35100 ft | 477 kts | 130° |
| 2026-05-04 19:01 | 39.07803 | 10.91708 | 35103 ft | 477 kts | 130° |
| 2026-05-04 19:01 | 39.03812 | 10.98532 | 35109 ft | 477 kts | 130° |
| 2026-05-04 19:02 | 39.00302 | 11.05771 | 35108 ft | 480 kts | 114° |
| 2026-05-04 19:02 | 38.98573 | 11.14042 | 35110 ft | 481 kts | 96° |
| 2026-05-04 19:03 | 38.97859 | 11.22591 | 35113 ft | 481 kts | 96° |
| 2026-05-04 19:03 | 38.97141 | 11.31154 | 35116 ft | 482 kts | 95° |
| 2026-05-04 19:04 | 38.96419 | 11.39713 | 35118 ft | 482 kts | 95° |
| 2026-05-04 19:04 | 38.96053 | 11.44003 | 34882 ft | 482 kts | 96° |
| 2026-05-04 19:04 | 38.95685 | 11.48283 | 34633 ft | 482 kts | 96° |
| 2026-05-04 19:05 | 38.95315 | 11.52549 | 34135 ft | 479 kts | 96° |
| 2026-05-04 19:05 | 38.94946 | 11.56791 | 33524 ft | 477 kts | 96° |
| 2026-05-04 19:05 | 38.94574 | 11.61028 | 32921 ft | 475 kts | 96° |
| 2026-05-04 19:05 | 38.94203 | 11.65232 | 32360 ft | 472 kts | 96° |
| 2026-05-04 19:06 | 38.93836 | 11.69403 | 31831 ft | 469 kts | 95° |
| 2026-05-04 19:06 | 38.93467 | 11.73544 | 31291 ft | 465 kts | 95° |
| 2026-05-04 19:06 | 38.93097 | 11.77657 | 30772 ft | 462 kts | 95° |
| 2026-05-04 19:06 | 38.92729 | 11.81743 | 30252 ft | 459 kts | 95° |
| 2026-05-04 19:07 | 38.92367 | 11.85792 | 29735 ft | 455 kts | 95° |
| 2026-05-04 19:07 | 38.92008 | 11.89817 | 29234 ft | 452 kts | 95° |
| 2026-05-04 19:07 | 38.91651 | 11.93814 | 28733 ft | 449 kts | 95° |
| 2026-05-04 19:07 | 38.91293 | 11.97779 | 28255 ft | 445 kts | 95° |
| 2026-05-04 19:08 | 38.90935 | 12.01703 | 27778 ft | 441 kts | 95° |
| 2026-05-04 19:08 | 38.90575 | 12.05604 | 27319 ft | 437 kts | 95° |
| 2026-05-04 19:08 | 38.90219 | 12.09465 | 26879 ft | 434 kts | 95° |
| 2026-05-04 19:08 | 38.89864 | 12.13303 | 26399 ft | 430 kts | 95° |
| 2026-05-04 19:09 | 38.89514 | 12.17053 | 25963 ft | 427 kts | 95° |
| 2026-05-04 19:09 | 38.89163 | 12.20826 | 25504 ft | 424 kts | 95° |
| 2026-05-04 19:09 | 38.88815 | 12.24569 | 25038 ft | 421 kts | 95° |
| 2026-05-04 19:09 | 38.88468 | 12.28283 | 24570 ft | 418 kts | 95° |
| 2026-05-04 19:10 | 38.88120 | 12.31983 | 24087 ft | 416 kts | 95° |
| 2026-05-04 19:10 | 38.87773 | 12.35652 | 23603 ft | 413 kts | 95° |
| 2026-05-04 19:10 | 38.87339 | 12.39292 | 23109 ft | 412 kts | 103° |
| 2026-05-04 19:10 | 38.86379 | 12.42737 | 22617 ft | 410 kts | 117° |
| 2026-05-04 19:11 | 38.84872 | 12.45816 | 22126 ft | 406 kts | 130° |
| 2026-05-04 19:11 | 38.82904 | 12.48383 | 21646 ft | 401 kts | 143° |
| 2026-05-04 19:11 | 38.80660 | 12.50484 | 21153 ft | 398 kts | 147° |
| 2026-05-04 19:11 | 38.78408 | 12.52537 | 20693 ft | 396 kts | 147° |
| 2026-05-04 19:12 | 38.76170 | 12.54581 | 20222 ft | 393 kts | 147° |
| 2026-05-04 19:12 | 38.71747 | 12.58623 | 19296 ft | 388 kts | 146° |
| 2026-05-04 19:12 | 38.69584 | 12.60683 | 18839 ft | 386 kts | 139° |
| 2026-05-04 19:13 | 38.67917 | 12.63353 | 18387 ft | 386 kts | 118° |
| 2026-05-04 19:13 | 38.67034 | 12.66566 | 17939 ft | 382 kts | 102° |
| 2026-05-04 19:13 | 38.66514 | 12.69890 | 17489 ft | 380 kts | 100° |
| 2026-05-04 19:13 | 38.66025 | 12.73202 | 17038 ft | 378 kts | 100° |
| 2026-05-04 19:14 | 38.65540 | 12.76503 | 16584 ft | 376 kts | 100° |
| 2026-05-04 19:14 | 38.65062 | 12.79779 | 16135 ft | 374 kts | 100° |
| 2026-05-04 19:14 | 38.64584 | 12.83037 | 15684 ft | 372 kts | 100° |
| 2026-05-04 19:14 | 38.64109 | 12.86285 | 15233 ft | 370 kts | 100° |
| 2026-05-04 19:15 | 38.63638 | 12.89505 | 14783 ft | 368 kts | 100° |
| 2026-05-04 19:15 | 38.63169 | 12.92717 | 14339 ft | 366 kts | 100° |
| 2026-05-04 19:15 | 38.62706 | 12.95896 | 13962 ft | 361 kts | 100° |
| 2026-05-04 19:15 | 38.62249 | 12.99034 | 13590 ft | 357 kts | 100° |
| 2026-05-04 19:16 | 38.61798 | 13.02139 | 13218 ft | 353 kts | 100° |
| 2026-05-04 19:16 | 38.61352 | 13.05208 | 12836 ft | 349 kts | 100° |
| 2026-05-04 19:16 | 38.60913 | 13.08235 | 12544 ft | 342 kts | 100° |
| 2026-05-04 19:16 | 38.60485 | 13.11178 | 12414 ft | 331 kts | 100° |
| 2026-05-04 19:17 | 38.60071 | 13.14022 | 12266 ft | 321 kts | 100° |
| 2026-05-04 19:17 | 38.59666 | 13.16802 | 12066 ft | 314 kts | 100° |
| 2026-05-04 19:17 | 38.59273 | 13.19510 | 11863 ft | 307 kts | 100° |
| 2026-05-04 19:17 | 38.58887 | 13.22172 | 11633 ft | 303 kts | 100° |
| 2026-05-04 19:18 | 38.58506 | 13.24803 | 11328 ft | 300 kts | 100° |
| 2026-05-04 19:18 | 38.58132 | 13.27401 | 11026 ft | 293 kts | 100° |
| 2026-05-04 19:18 | 38.57768 | 13.29932 | 10725 ft | 285 kts | 100° |
| 2026-05-04 19:18 | 38.57424 | 13.32357 | 10431 ft | 276 kts | 100° |
| 2026-05-04 19:19 | 38.57079 | 13.34759 | 10121 ft | 271 kts | 99° |
| 2026-05-04 19:19 | 38.56737 | 13.37123 | 9814 ft | 264 kts | 103° |
| 2026-05-04 19:19 | 38.55984 | 13.39158 | 9514 ft | 254 kts | 133° |
| 2026-05-04 19:19 | 38.54580 | 13.40437 | 9221 ft | 248 kts | 159° |
| 2026-05-04 19:20 | 38.52964 | 13.41184 | 8922 ft | 246 kts | 163° |
| 2026-05-04 19:20 | 38.51331 | 13.41802 | 8621 ft | 243 kts | 172° |
| 2026-05-04 19:20 | 38.49674 | 13.41677 | 8317 ft | 239 kts | 195° |
| 2026-05-04 19:20 | 38.48081 | 13.41092 | 8016 ft | 238 kts | 199° |
| 2026-05-04 19:21 | 38.46512 | 13.40445 | 7716 ft | 236 kts | 199° |
| 2026-05-04 19:21 | 38.44951 | 13.39791 | 7413 ft | 235 kts | 198° |
| 2026-05-04 19:21 | 38.43399 | 13.39135 | 7112 ft | 233 kts | 199° |
| 2026-05-04 19:21 | 38.41862 | 13.38479 | 6810 ft | 232 kts | 199° |
| 2026-05-04 19:22 | 38.40334 | 13.37824 | 6513 ft | 231 kts | 199° |
| 2026-05-04 19:22 | 38.38823 | 13.37176 | 6209 ft | 226 kts | 198° |
| 2026-05-04 19:22 | 38.37326 | 13.36529 | 5907 ft | 227 kts | 199° |
| 2026-05-04 19:22 | 38.35832 | 13.35877 | 5607 ft | 227 kts | 199° |
| 2026-05-04 19:23 | 38.34345 | 13.35225 | 5309 ft | 225 kts | 199° |
| 2026-05-04 19:23 | 38.32832 | 13.34756 | 5010 ft | 224 kts | 187° |
| 2026-05-04 19:23 | 38.31296 | 13.34575 | 4701 ft | 218 kts | 184° |
| 2026-05-04 19:23 | 38.29807 | 13.34440 | 4397 ft | 211 kts | 184° |
| 2026-05-04 19:24 | 38.28376 | 13.34314 | 4143 ft | 200 kts | 184° |
| 2026-05-04 19:24 | 38.27037 | 13.34054 | 3825 ft | 191 kts | 201° |
| 2026-05-04 19:24 | 38.25966 | 13.33104 | 3522 ft | 189 kts | 230° |
| 2026-05-04 19:24 | 38.25503 | 13.32178 | 3386 ft | 188 kts | 239° |
| 2026-05-04 19:25 | 38.24692 | 13.30205 | 3094 ft | 188 kts | 244° |
| 2026-05-04 19:25 | 38.24332 | 13.29201 | 2928 ft | 188 kts | 245° |
| 2026-05-04 19:25 | 38.23809 | 13.27678 | 2686 ft | 187 kts | 245° |
| 2026-05-04 19:25 | 38.23299 | 13.26159 | 2434 ft | 186 kts | 246° |
| 2026-05-04 19:26 | 38.22633 | 13.24167 | 2113 ft | 183 kts | 246° |
| 2026-05-04 19:26 | 38.22303 | 13.23179 | 1948 ft | 175 kts | 246° |
| 2026-05-04 19:26 | 38.21849 | 13.21823 | 1739 ft | 165 kts | 246° |
| 2026-05-04 19:26 | 38.21406 | 13.20500 | 1518 ft | 161 kts | 246° |
| 2026-05-04 19:27 | 38.20969 | 13.19199 | 1304 ft | 156 kts | 246° |
| 2026-05-04 19:27 | 38.20565 | 13.17990 | 1096 ft | 142 kts | 246° |
| 2026-05-04 19:27 | 38.20186 | 13.16853 | 902 ft | 138 kts | 246° |
| 2026-05-04 19:27 | 38.19816 | 13.15747 | 701 ft | 135 kts | 246° |
| 2026-05-04 19:28 | 38.19445 | 13.14652 | 554 ft | 135 kts | 246° |
| 2026-05-04 19:28 | 38.19081 | 13.13558 | 390 ft | 134 kts | 246° |
| 2026-05-04 19:28 | 38.18710 | 13.12463 | 201 ft | 135 kts | 246° |
| 2026-05-04 19:28 | 38.18348 | 13.11377 | 64 ft | 128 kts | 247° |
| 2026-05-04 19:29 | 38.18055 | 13.10515 | 68 ft | 75 kts | 245° |
| 2026-05-04 19:29 | 38.18007 | 13.10263 | 62 ft | 17 kts | 289° |
| 2026-05-04 19:29 | 38.18023 | 13.10154 | 65 ft | 12 kts | 277° |
| 2026-05-04 19:29 | 38.18034 | 13.10050 | 60 ft | 12 kts | 277° |
| 2026-05-04 19:30 | 38.18059 | 13.09955 | 64 ft | 11 kts | 343° |
| 2026-05-04 19:30 | 38.18108 | 13.10049 | 58 ft | 14 kts | 69° |
| 2026-05-04 19:30 | 38.18148 | 13.10168 | 59 ft | 18 kts | 65° |
| 2026-05-04 19:30 | 38.18206 | 13.10336 | 63 ft | 21 kts | 59° |
| 2026-05-04 19:31 | 38.18306 | 13.10398 | 61 ft | 16 kts | 58° |
| 2026-05-04 19:31 | 38.18373 | 13.10493 | 65 ft | 14 kts | 22° |
| 2026-05-04 19:31 | 38.18459 | 13.10486 | 63 ft | 12 kts | 336° |
| 2026-05-04 19:31 | 38.18494 | 13.10467 | 65 ft | 0 kts | 336° |